| time (UTC) | temp F | wind direction | speed MPH | gust MPH | rain 1hr in | rain 24hr in | rain mn in | humidity % | barometer mb |
| 20260831011003 | 78 | 1 | 2.0 | 6.0 | 0.00 | 0.00 | 0.00 | 84 | 1020.4 |
| 20260831010503 | 78 | 1 | 2.0 | 6.0 | 0.00 | 0.00 | 0.00 | 84 | 1020.2 |
| 20260831010003 | 79 | 1 | 2.0 | 6.0 | 0.00 | 0.00 | 0.00 | 83 | 1020.3 |
| 20260831005503 | 79 | 1 | 3.0 | 7.0 | 0.00 | 0.00 | 0.00 | 83 | 1020.2 |
| 20260831005003 | 79 | 1 | 3.0 | 8.0 | 0.00 | 0.00 | 0.00 | 82 | 1020.1 |
| 20260831004503 | 79 | 1 | 3.0 | 8.0 | 0.00 | 0.00 | 0.00 | 82 | 1020.1 |
| 20260831004003 | 79 | 1 | 3.0 | 9.0 | 0.00 | 0.00 | 0.00 | 81 | 1020.1 |
| 20260831003003 | 79 | 1 | 3.0 | 6.0 | 0.00 | 0.00 | 0.00 | 79 | 1020.0 |
| 20260831002503 | 79 | 1 | 3.0 | 6.0 | 0.00 | 0.00 | 0.00 | 78 | 1019.9 |
| 20260831002003 | 79 | 2 | 2.0 | 6.0 | 0.00 | 0.00 | 0.00 | 77 | 1019.9 |
| 20260831001503 | 79 | 4 | 1.0 | 5.0 | 0.00 | 0.00 | 0.00 | 76 | 1019.8 |
| 20260831001004 | 80 | 5 | 1.0 | 4.0 | 0.00 | 0.00 | 0.00 | 74 | 1019.9 |
| 20260830235504 | 80 | 2 | 2.0 | 5.0 | 0.00 | 0.00 | 0.00 | 71 | 1019.7 |
| 20260830235004 | 80 | 3 | 2.0 | 4.0 | 0.00 | 0.00 | 0.00 | 71 | 1019.7 |
| 20260830234503 | 80 | 3 | 1.0 | 4.0 | 0.00 | 0.00 | 0.00 | 70 | 1019.8 |
| 20260830234003 | 80 | 4 | 1.0 | 4.0 | 0.00 | 0.00 | 0.00 | 69 | 1019.8 |
| 20260830233503 | 81 | 11 | 1.0 | 4.0 | 0.00 | 0.00 | 0.00 | 69 | 1019.7 |
| 20260830233003 | 81 | 16 | 0.0 | 3.0 | 0.00 | 0.00 | 0.00 | 69 | 1019.8 |
| 20260830232503 | 81 | 4 | 1.0 | 2.0 | 0.00 | 0.00 | 0.00 | 68 | 1019.8 |
| 20260830232003 | 81 | 4 | 1.0 | 3.0 | 0.00 | 0.00 | 0.00 | 68 | 1019.8 |
| 20260830231504 | 82 | 2 | 1.0 | 5.0 | 0.00 | 0.00 | 0.00 | 68 | 1019.8 |
| 20260830231003 | 82 | 8 | 1.0 | 5.0 | 0.00 | 0.00 | 0.00 | 68 | 1019.8 |
| 20260830230503 | 82 | 9 | 1.0 | 3.0 | 0.00 | 0.00 | 0.00 | 67 | 1019.8 |
| 20260830225503 | 83 | 4 | 1.0 | 5.0 | 0.00 | 0.00 | 0.00 | 66 | 1019.8 |
| 20260830224503 | 83 | 14 | 1.0 | 2.0 | 0.00 | 0.00 | 0.00 | 65 | 1019.9 |
| 20260830224003 | 83 | 11 | 1.0 | 2.0 | 0.00 | 0.00 | 0.00 | 66 | 1019.9 |
| 20260830223503 | 84 | 358 | 1.0 | 6.0 | 0.00 | 0.00 | 0.00 | 64 | 1019.9 |
| 20260830223003 | 84 | 1 | 1.0 | 7.0 | 0.00 | 0.00 | 0.00 | 65 | 1019.8 |
| 20260830222503 | 84 | 3 | 1.0 | 7.0 | 0.00 | 0.00 | 0.00 | 64 | 1019.8 |
| 20260830222003 | 84 | 358 | 2.0 | 6.0 | 0.00 | 0.00 | 0.00 | 64 | 1019.9 |
| 20260830221503 | 84 | 359 | 3.0 | 9.0 | 0.00 | 0.00 | 0.00 | 64 | 1019.7 |
| 20260830221003 | 84 | 359 | 3.0 | 11.0 | 0.00 | 0.00 | 0.00 | 63 | 1019.6 |
| 20260830220503 | 85 | 359 | 3.0 | 11.0 | 0.00 | 0.00 | 0.00 | 64 | 1019.5 |
| 20260830220003 | 85 | 359 | 3.0 | 10.0 | 0.00 | 0.00 | 0.00 | 65 | 1019.4 |
| 20260830215503 | 85 | 1 | 3.0 | 10.0 | 0.00 | 0.00 | 0.00 | 65 | 1019.3 |
| 20260830214504 | 85 | 359 | 5.0 | 12.0 | 0.00 | 0.00 | 0.00 | 64 | 1019.2 |
| 20260830214003 | 85 | 1 | 6.0 | 18.0 | 0.00 | 0.00 | 0.00 | 64 | 1019.2 |
| 20260830213003 | 85 | 358 | 2.0 | 12.0 | 0.00 | 0.00 | 0.00 | 65 | 1019.4 |
| 20260830212503 | 85 | 359 | 2.0 | 9.0 | 0.00 | 0.00 | 0.00 | 65 | 1019.4 |
| 20260830212003 | 85 | 1 | 2.0 | 8.0 | 0.00 | 0.00 | 0.00 | 64 | 1019.4 |
| 20260830211003 | 86 | 359 | 3.0 | 22.0 | 0.00 | 0.00 | 0.00 | 65 | 1019.4 |
| 20260830210503 | 86 | 358 | 3.0 | 22.0 | 0.00 | 0.00 | 0.00 | 63 | 1019.4 |
| 20260830210004 | 86 | 359 | 3.0 | 15.0 | 0.00 | 0.00 | 0.00 | 62 | 1019.4 |
| 20260830205503 | 86 | 359 | 3.0 | 9.0 | 0.00 | 0.00 | 0.00 | 61 | 1019.6 |
| 20260830205003 | 86 | 359 | 3.0 | 9.0 | 0.00 | 0.00 | 0.00 | 60 | 1019.5 |
| 20260830204504 | 86 | 358 | 3.0 | 10.0 | 0.00 | 0.00 | 0.00 | 61 | 1019.5 |
| 20260830204004 | 86 | 359 | 3.0 | 10.0 | 0.00 | 0.00 | 0.00 | 59 | 1019.6 |
| 20260830203503 | 86 | 359 | 2.0 | 8.0 | 0.00 | 0.00 | 0.00 | 59 | 1019.6 |
| 20260830203005 | 86 | 359 | 3.0 | 8.0 | 0.00 | 0.00 | 0.00 | 58 | 1019.6 |
| 20260830202003 | 86 | 356 | 3.0 | 10.0 | 0.00 | 0.00 | 0.00 | 55 | 1019.7 |
| 20260830201003 | 86 | 357 | 3.0 | 13.0 | 0.00 | 0.00 | 0.00 | 51 | 1019.9 |
| 20260830200503 | 86 | 356 | 3.0 | 13.0 | 0.00 | 0.00 | 0.00 | 52 | 1020.0 |
| 20260830200003 | 86 | 357 | 3.0 | 9.0 | 0.00 | 0.00 | 0.00 | 54 | 1020.1 |
| 20260830195503 | 86 | 359 | 4.0 | 15.0 | 0.00 | 0.00 | 0.00 | 55 | 1020.1 |
| 20260830195003 | 86 | 359 | 5.0 | 18.0 | 0.00 | 0.00 | 0.00 | 54 | 1020.1 |
| 20260830194503 | 86 | 359 | 5.0 | 18.0 | 0.00 | 0.00 | 0.00 | 57 | 1020.2 |
| 20260830194003 | 86 | 357 | 3.0 | 10.0 | 0.00 | 0.00 | 0.00 | 57 | 1020.2 |
| 20260830193505 | 86 | 357 | 4.0 | 12.0 | 0.00 | 0.00 | 0.00 | 59 | 1020.2 |
| 20260830192503 | 86 | 354 | 2.0 | 7.0 | 0.00 | 0.00 | 0.00 | 58 | 1020.5 |
| 20260830191503 | 86 | 356 | 3.0 | 16.0 | 0.00 | 0.00 | 0.00 | 57 | 1020.5 |
| 20260830191003 | 86 | 359 | 4.0 | 16.0 | 0.00 | 0.00 | 0.00 | 59 | 1020.6 |
| 20260830190502 | 87 | 357 | 3.0 | 11.0 | 0.00 | 0.00 | 0.00 | 59 | 1020.7 |
| 20260830185003 | 87 | 359 | 4.0 | 13.0 | 0.00 | 0.00 | 0.00 | 56 | 1020.9 |
| 20260830184504 | 87 | 359 | 3.0 | 13.0 | 0.00 | 0.00 | 0.00 | 57 | 1020.9 |
| 20260830184003 | 87 | 359 | 2.0 | 6.0 | 0.00 | 0.00 | 0.00 | 57 | 1021.1 |
| 20260830183503 | 88 | 357 | 3.0 | 10.0 | 0.00 | 0.00 | 0.00 | 55 | 1021.1 |
| 20260830183003 | 88 | 358 | 3.0 | 10.0 | 0.00 | 0.00 | 0.00 | 59 | 1021.2 |
| 20260830182503 | 88 | 358 | 3.0 | 10.0 | 0.00 | 0.00 | 0.00 | 55 | 1021.3 |
| 20260830182003 | 88 | 358 | 3.0 | 9.0 | 0.00 | 0.00 | 0.00 | 55 | 1021.4 |
| 20260830181503 | 88 | 357 | 3.0 | 12.0 | 0.00 | 0.00 | 0.00 | 57 | 1021.4 |
| 20260830180003 | 87 | 358 | 3.0 | 8.0 | 0.00 | 0.00 | 0.00 | 56 | 1021.6 |
| 20260830175504 | 87 | 354 | 2.0 | 9.0 | 0.00 | 0.00 | 0.00 | 60 | 1021.5 |
| 20260830175003 | 87 | 348 | 2.0 | 9.0 | 0.00 | 0.00 | 0.00 | 60 | 1021.6 |
| 20260830174503 | 87 | 347 | 2.0 | 9.0 | 0.00 | 0.00 | 0.00 | 59 | 1021.6 |
| 20260830174004 | 87 | 355 | 2.0 | 6.0 | 0.00 | 0.00 | 0.00 | 59 | 1021.9 |
| 20260830173504 | 87 | 333 | 3.0 | 11.0 | 0.00 | 0.00 | 0.00 | 63 | 1021.9 |
| 20260830173003 | 87 | 326 | 3.0 | 11.0 | 0.00 | 0.00 | 0.00 | 59 | 1021.9 |
| 20260830172503 | 87 | 340 | 3.0 | 8.0 | 0.00 | 0.00 | 0.00 | 61 | 1021.8 |
| 20260830171503 | 87 | 353 | 2.0 | 7.0 | 0.00 | 0.00 | 0.00 | 60 | 1022.1 |
| 20260830171003 | 87 | 359 | 3.0 | 7.0 | 0.00 | 0.00 | 0.00 | 63 | 1022.1 |
| 20260830170503 | 87 | 2 | 4.0 | 14.0 | 0.00 | 0.00 | 0.00 | 65 | 1022.1 |
| 20260830170003 | 87 | 357 | 4.0 | 14.0 | 0.00 | 0.00 | 0.00 | 67 | 1022.2 |
| 20260830165503 | 87 | 359 | 2.0 | 8.0 | 0.00 | 0.00 | 0.00 | 66 | 1022.3 |
| 20260830165003 | 87 | 5 | 2.0 | 7.0 | 0.00 | 0.00 | 0.00 | 63 | 1022.3 |
| 20260830164503 | 86 | 1 | 2.0 | 12.0 | 0.00 | 0.00 | 0.00 | 63 | 1022.3 |
| 20260830164003 | 86 | 2 | 3.0 | 12.0 | 0.00 | 0.00 | 0.00 | 62 | 1022.3 |
| 20260830163503 | 86 | 3 | 3.0 | 10.0 | 0.00 | 0.00 | 0.00 | 62 | 1022.3 |
| 20260830163003 | 86 | 2 | 2.0 | 10.0 | 0.00 | 0.00 | 0.00 | 66 | 1022.4 |
| 20260830162003 | 86 | 351 | 2.0 | 8.0 | 0.00 | 0.00 | 0.00 | 63 | 1022.3 |
| 20260830161503 | 86 | 355 | 2.0 | 6.0 | 0.00 | 0.00 | 0.00 | 66 | 1022.4 |
| 20260830161004 | 85 | 1 | 3.0 | 12.0 | 0.00 | 0.00 | 0.00 | 66 | 1022.6 |
| 20260830160002 | 85 | 1 | 3.0 | 16.0 | 0.00 | 0.00 | 0.00 | 67 | 1022.6 |
| 20260830155503 | 85 | 1 | 4.0 | 19.0 | 0.00 | 0.00 | 0.00 | 67 | 1022.7 |
| 20260830155003 | 84 | 1 | 4.0 | 19.0 | 0.00 | 0.00 | 0.00 | 67 | 1022.7 |
| 20260830154004 | 84 | 359 | 4.0 | 10.0 | 0.00 | 0.00 | 0.00 | 68 | 1022.9 |
| 20260830153504 | 84 | 357 | 2.0 | 9.0 | 0.00 | 0.00 | 0.00 | 70 | 1022.9 |
| 20260830153004 | 84 | 358 | 3.0 | 10.0 | 0.00 | 0.00 | 0.00 | 72 | 1022.9 |
| 20260830152503 | 84 | 1 | 4.0 | 11.0 | 0.00 | 0.00 | 0.00 | 69 | 1023.0 |
| 20260830152003 | 83 | 1 | 3.0 | 11.0 | 0.00 | 0.00 | 0.00 | 68 | 1023.0 |
| 20260830151503 | 83 | 352 | 2.0 | 7.0 | 0.00 | 0.00 | 0.00 | 70 | 1022.9 |
| 20260830151003 | 83 | 354 | 2.0 | 9.0 | 0.00 | 0.00 | 0.00 | 69 | 1022.9 |
| 20260830150503 | 83 | 2 | 5.0 | 12.0 | 0.00 | 0.00 | 0.00 | 71 | 1022.9 |
| 20260830150003 | 82 | 1 | 4.0 | 12.0 | 0.00 | 0.00 | 0.00 | 71 | 1022.9 |
| 20260830145503 | 82 | 359 | 2.0 | 8.0 | 0.00 | 0.00 | 0.00 | 70 | 1022.9 |
| 20260830145003 | 82 | 1 | 2.0 | 8.0 | 0.00 | 0.00 | 0.00 | 72 | 1023.0 |
| 20260830144503 | 82 | 358 | 3.0 | 10.0 | 0.00 | 0.00 | 0.00 | 75 | 1023.0 |
| 20260830144003 | 82 | 359 | 5.0 | 10.0 | 0.00 | 0.00 | 0.00 | 72 | 1023.0 |
| 20260830143504 | 81 | 2 | 5.0 | 11.0 | 0.00 | 0.00 | 0.00 | 72 | 1023.0 |
| 20260830143004 | 81 | 1 | 3.0 | 11.0 | 0.00 | 0.00 | 0.00 | 73 | 1023.1 |
| 20260830142003 | 81 | 1 | 2.0 | 7.0 | 0.00 | 0.00 | 0.00 | 74 | 1023.1 |
| 20260830141502 | 81 | 1 | 2.0 | 7.0 | 0.00 | 0.00 | 0.00 | 75 | 1023.0 |
| 20260830140503 | 80 | 359 | 3.0 | 10.0 | 0.00 | 0.00 | 0.00 | 76 | 1023.2 |
| 20260830140003 | 80 | 1 | 3.0 | 10.0 | 0.00 | 0.00 | 0.00 | 77 | 1023.1 |
| 20260830135502 | 79 | 358 | 2.0 | 6.0 | 0.00 | 0.00 | 0.00 | 77 | 1023.2 |
| 20260830135003 | 79 | 1 | 2.0 | 6.0 | 0.00 | 0.00 | 0.00 | 80 | 1023.4 |
| 20260830134502 | 78 | 6 | 2.0 | 5.0 | 0.00 | 0.00 | 0.00 | 80 | 1023.5 |
| 20260830133503 | 77 | 1 | 2.0 | 9.0 | 0.00 | 0.00 | 0.00 | 84 | 1023.6 |
| 20260830133004 | 76 | 2 | 3.0 | 9.0 | 0.00 | 0.00 | 0.00 | 83 | 1023.7 |
| 20260830132503 | 76 | 2 | 3.0 | 9.0 | 0.00 | 0.00 | 0.00 | 86 | 1023.8 |
| 20260830132003 | 75 | 359 | 3.0 | 9.0 | 0.00 | 0.00 | 0.00 | 86 | 1023.9 |
| 20260830131003 | 74 | 356 | 1.0 | 5.0 | 0.00 | 0.00 | 0.00 | 89 | 1023.9 |
| 20260830130503 | 73 | 358 | 2.0 | 9.0 | 0.00 | 0.00 | 0.00 | 90 | 1023.9 |
| 20260830130003 | 73 | 1 | 4.0 | 9.0 | 0.00 | 0.00 | 0.00 | 91 | 1023.9 |
| 20260830125503 | 72 | 1 | 5.0 | 11.0 | 0.00 | 0.00 | 0.00 | 91 | 1023.9 |
| 20260830125003 | 72 | 1 | 5.0 | 11.0 | 0.00 | 0.00 | 0.00 | 91 | 1023.9 |
| 20260830124503 | 72 | 359 | 3.0 | 8.0 | 0.00 | 0.00 | 0.00 | 92 | 1023.9 |
| 20260830123003 | 70 | 2 | 2.0 | 6.0 | 0.00 | 0.00 | 0.00 | 95 | 1023.9 |
| 20260830122504 | 70 | 2 | 2.0 | 4.0 | 0.00 | 0.00 | 0.00 | 96 | 1023.8 |
| 20260830122003 | 69 | 3 | 2.0 | 4.0 | 0.00 | 0.00 | 0.00 | 97 | 1024.0 |
| 20260830121504 | 68 | 4 | 2.0 | 4.0 | 0.00 | 0.00 | 0.00 | 97 | 1024.1 |
| 20260830121003 | 68 | 4 | 2.0 | 4.0 | 0.00 | 0.00 | 0.00 | 97 | 1024.0 |
| 20260830120503 | 68 | 5 | 2.0 | 3.0 | 0.00 | 0.00 | 0.00 | 97 | 1023.9 |
| 20260830120002 | 67 | 3 | 2.0 | 6.0 | 0.00 | 0.00 | 0.00 | 97 | 1023.9 |
| 20260830115503 | 67 | 4 | 2.0 | 6.0 | 0.00 | 0.00 | 0.00 | 97 | 1024.0 |
| 20260830115003 | 66 | 8 | 1.0 | 2.0 | 0.00 | 0.00 | 0.00 | 97 | 1023.9 |
| 20260830114503 | 66 | 4 | 1.0 | 3.0 | 0.00 | 0.00 | 0.00 | 97 | 1023.9 |
| 20260830114003 | 66 | 2 | 1.0 | 3.0 | 0.00 | 0.00 | 0.00 | 97 | 1023.9 |
| 20260830113503 | 65 | 3 | 1.0 | 2.0 | 0.00 | 0.00 | 0.00 | 96 | 1024.0 |
| 20260830112003 | 64 | 6 | 1.0 | 2.0 | 0.00 | 0.00 | 0.00 | 96 | 1024.0 |
| 20260830111503 | 64 | 11 | 1.0 | 2.0 | 0.00 | 0.00 | 0.00 | 96 | 1024.0 |
| 20260830111003 | 64 | 10 | 0.0 | 2.0 | 0.00 | 0.00 | 0.00 | 96 | 1024.1 |
| 20260830110503 | 64 | 6 | 1.0 | 3.0 | 0.00 | 0.00 | 0.00 | 96 | 1024.1 |
| 20260830110004 | 64 | 9 | 1.0 | 3.0 | 0.00 | 0.00 | 0.00 | 95 | 1024.0 |
| 20260830105502 | 64 | 74 | 0.0 | 2.0 | 0.00 | 0.00 | 0.00 | 95 | 1024.0 |
| 20260830104503 | 64 | 92 | 0.0 | 2.0 | 0.00 | 0.00 | 0.00 | 95 | 1023.9 |
| 20260830104003 | 64 | 96 | 0.0 | 2.0 | 0.00 | 0.00 | 0.00 | 95 | 1023.9 |
| 20260830103504 | 64 | 52 | 0.0 | 2.0 | 0.00 | 0.00 | 0.00 | 95 | 1023.7 |
| 20260830103004 | 64 | 40 | 0.0 | 2.0 | 0.00 | 0.00 | 0.00 | 95 | 1023.6 |
| 20260830102504 | 64 | 90 | 0.0 | 2.0 | 0.00 | 0.00 | 0.00 | 95 | 1023.6 |
| 20260830102003 | 64 | 88 | 0.0 | 2.0 | 0.00 | 0.00 | 0.00 | 95 | 1023.6 |
| 20260830101504 | 64 | 87 | 0.0 | 2.0 | 0.00 | 0.00 | 0.00 | 95 | 1023.6 |
| 20260830101003 | 64 | 90 | 0.0 | 2.0 | 0.00 | 0.00 | 0.00 | 95 | 1023.7 |
| 20260830100504 | 64 | 90 | 0.0 | 2.0 | 0.00 | 0.00 | 0.00 | 95 | 1023.8 |
| 20260830100003 | 64 | 95 | 0.0 | 2.0 | 0.00 | 0.00 | 0.00 | 95 | 1023.8 |
| 20260830095503 | 64 | 111 | 0.0 | 2.0 | 0.00 | 0.00 | 0.00 | 95 | 1023.7 |
| 20260830095003 | 64 | 36 | 0.0 | 2.0 | 0.00 | 0.00 | 0.00 | 95 | 1023.8 |
| 20260830094503 | 64 | 12 | 0.0 | 2.0 | 0.00 | 0.00 | 0.00 | 95 | 1023.7 |
| 20260830094003 | 64 | 7 | 0.0 | 2.0 | 0.00 | 0.00 | 0.00 | 95 | 1023.8 |
| 20260830093503 | 64 | 12 | 0.0 | 2.0 | 0.00 | 0.00 | 0.00 | 95 | 1023.8 |
| 20260830093003 | 64 | 72 | 0.0 | 2.0 | 0.00 | 0.00 | 0.00 | 95 | 1023.8 |
| 20260830092503 | 64 | 94 | 0.0 | 2.0 | 0.00 | 0.00 | 0.00 | 95 | 1023.8 |
| 20260830092003 | 64 | 113 | 0.0 | 2.0 | 0.00 | 0.00 | 0.00 | 95 | 1023.7 |
| 20260830091503 | 64 | 98 | 0.0 | 2.0 | 0.00 | 0.00 | 0.00 | 95 | 1023.7 |
| 20260830091003 | 64 | 74 | 0.0 | 2.0 | 0.00 | 0.00 | 0.00 | 94 | 1023.7 |
| 20260830090504 | 64 | 88 | 0.0 | 2.0 | 0.00 | 0.00 | 0.00 | 94 | 1023.7 |
| 20260830090004 | 64 | 7 | 0.0 | 2.0 | 0.00 | 0.00 | 0.00 | 94 | 1023.7 |
| 20260830085503 | 64 | 3 | 0.0 | 2.0 | 0.00 | 0.00 | 0.00 | 94 | 1023.6 |
| 20260830085003 | 64 | 2 | 0.0 | 2.0 | 0.00 | 0.00 | 0.00 | 94 | 1023.7 |
| 20260830084503 | 64 | 303 | 0.0 | 2.0 | 0.00 | 0.00 | 0.00 | 94 | 1023.6 |
| 20260830084003 | 64 | 316 | 0.0 | 2.0 | 0.00 | 0.00 | 0.00 | 94 | 1023.6 |
| 20260830083503 | 64 | 318 | 0.0 | 2.0 | 0.00 | 0.00 | 0.00 | 94 | 1023.7 |
| 20260830083003 | 64 | 3 | 0.0 | 2.0 | 0.00 | 0.00 | 0.00 | 94 | 1023.8 |
| 20260830082503 | 64 | 5 | 0.0 | 2.0 | 0.00 | 0.00 | 0.00 | 94 | 1023.8 |
| 20260830081503 | 64 | 4 | 1.0 | 1.0 | 0.00 | 0.00 | 0.00 | 94 | 1023.7 |
| 20260830081003 | 65 | 4 | 0.0 | 2.0 | 0.00 | 0.00 | 0.00 | 94 | 1023.7 |
| 20260830080503 | 65 | 336 | 0.0 | 2.0 | 0.00 | 0.00 | 0.00 | 94 | 1023.7 |
| 20260830080004 | 65 | 319 | 0.0 | 2.0 | 0.00 | 0.00 | 0.00 | 94 | 1023.7 |
| 20260830073503 | 65 | 80 | 0.0 | 2.0 | 0.00 | 0.00 | 0.00 | 94 | 1023.6 |
| 20260830073003 | 65 | 74 | 0.0 | 2.0 | 0.00 | 0.00 | 0.00 | 94 | 1023.6 |
| 20260830072504 | 65 | 109 | 0.0 | 2.0 | 0.00 | 0.00 | 0.00 | 94 | 1023.7 |
| 20260830072003 | 65 | 45 | 0.0 | 2.0 | 0.00 | 0.00 | 0.00 | 94 | 1023.7 |
| 20260830071003 | 65 | 90 | 0.0 | 1.0 | 0.00 | 0.00 | 0.00 | 94 | 1023.8 |
| 20260830070504 | 65 | 90 | 0.0 | 2.0 | 0.00 | 0.00 | 0.00 | 94 | 1023.8 |
| 20260830070003 | 65 | 101 | 0.0 | 2.0 | 0.00 | 0.00 | 0.00 | 94 | 1023.9 |
| 20260830065503 | 65 | 143 | 0.0 | 1.0 | 0.00 | 0.00 | 0.00 | 94 | 1024.0 |
| 20260830064503 | 65 | 48 | 0.0 | 2.0 | 0.00 | 0.00 | 0.00 | 93 | 1024.0 |
| 20260830064003 | 65 | 91 | 0.0 | 2.0 | 0.00 | 0.00 | 0.00 | 93 | 1024.2 |
| 20260830063503 | 65 | 81 | 0.0 | 2.0 | 0.00 | 0.00 | 0.00 | 93 | 1024.2 |
| 20260830063003 | 65 | 17 | 0.0 | 2.0 | 0.00 | 0.00 | 0.00 | 93 | 1024.2 |
| 20260830062503 | 65 | 16 | 0.0 | 2.0 | 0.00 | 0.00 | 0.00 | 93 | 1024.2 |
| 20260830062003 | 65 | 11 | 0.0 | 2.0 | 0.00 | 0.00 | 0.00 | 93 | 1024.3 |
| 20260830061503 | 65 | 5 | 0.0 | 2.0 | 0.00 | 0.00 | 0.00 | 93 | 1024.4 |
| 20260830061003 | 65 | 1 | 0.0 | 1.0 | 0.00 | 0.00 | 0.00 | 93 | 1024.3 |
| 20260830060503 | 65 | 2 | 0.0 | 2.0 | 0.00 | 0.00 | 0.00 | 93 | 1024.2 |
| 20260830055504 | 65 | 5 | 0.0 | 3.0 | 0.00 | 0.00 | 0.00 | 92 | 1024.3 |
| 20260830055004 | 65 | 10 | 0.0 | 2.0 | 0.00 | 0.00 | 0.00 | 93 | 1024.2 |
| 20260830054503 | 65 | 52 | 0.0 | 2.0 | 0.00 | 0.00 | 0.00 | 92 | 1024.3 |
| 20260830054003 | 65 | 88 | 0.0 | 2.0 | 0.00 | 0.00 | 0.00 | 92 | 1024.4 |
| 20260830053503 | 66 | 90 | 0.0 | 2.0 | 0.00 | 0.00 | 0.00 | 92 | 1024.3 |
| 20260830053003 | 66 | 5 | 0.0 | 2.0 | 0.00 | 0.00 | 0.00 | 92 | 1024.5 |
| 20260830052503 | 66 | 4 | 0.0 | 2.0 | 0.00 | 0.00 | 0.00 | 92 | 1024.5 |
| 20260830052003 | 66 | 126 | 0.0 | 1.0 | 0.00 | 0.00 | 0.00 | 92 | 1024.5 |
| 20260830051503 | 66 | 126 | 0.0 | 1.0 | 0.00 | 0.00 | 0.00 | 92 | 1024.6 |
| 20260830051004 | 66 | 21 | 0.0 | 2.0 | 0.00 | 0.00 | 0.00 | 91 | 1024.5 |
| 20260830050503 | 66 | 50 | 0.0 | 2.0 | 0.00 | 0.00 | 0.00 | 91 | 1024.5 |
| 20260830050003 | 66 | 142 | 0.0 | 2.0 | 0.00 | 0.00 | 0.00 | 92 | 1024.5 |
| 20260830045503 | 66 | 142 | 0.0 | 2.0 | 0.00 | 0.00 | 0.00 | 91 | 1024.4 |
| 20260830045003 | 66 | 52 | 0.0 | 2.0 | 0.00 | 0.00 | 0.00 | 91 | 1024.5 |
| 20260830044503 | 66 | 8 | 0.0 | 2.0 | 0.00 | 0.00 | 0.00 | 91 | 1024.4 |
| 20260830044004 | 66 | 3 | 0.0 | 2.0 | 0.00 | 0.00 | 0.00 | 90 | 1024.4 |
| 20260830043503 | 66 | 3 | 0.0 | 2.0 | 0.00 | 0.00 | 0.00 | 90 | 1024.3 |
| 20260830043004 | 67 | 9 | 0.0 | 2.0 | 0.00 | 0.00 | 0.00 | 90 | 1024.3 |
| 20260830042503 | 67 | 20 | 0.0 | 2.0 | 0.00 | 0.00 | 0.00 | 90 | 1024.1 |
| 20260830042003 | 67 | 28 | 0.0 | 2.0 | 0.00 | 0.00 | 0.00 | 90 | 1024.0 |
| 20260830041505 | 67 | 354 | 0.0 | 2.0 | 0.00 | 0.00 | 0.00 | 90 | 1024.0 |
| 20260830041003 | 67 | 2 | 0.0 | 2.0 | 0.00 | 0.00 | 0.00 | 89 | 1023.9 |
| 20260830040503 | 67 | 47 | 0.0 | 2.0 | 0.00 | 0.00 | 0.00 | 89 | 1024.0 |
| 20260830035503 | 67 | 96 | 0.0 | 2.0 | 0.00 | 0.00 | 0.00 | 88 | 1023.9 |
| 20260830035003 | 68 | 50 | 0.0 | 2.0 | 0.00 | 0.00 | 0.00 | 88 | 1023.8 |
| 20260830034503 | 68 | 30 | 0.0 | 2.0 | 0.00 | 0.00 | 0.00 | 88 | 1023.8 |
| 20260830034003 | 68 | 48 | 0.0 | 2.0 | 0.00 | 0.00 | 0.00 | 88 | 1023.8 |
| 20260830033503 | 68 | 114 | 0.0 | 2.0 | 0.00 | 0.00 | 0.00 | 88 | 1023.8 |
| 20260830033003 | 68 | 103 | 0.0 | 2.0 | 0.00 | 0.00 | 0.00 | 87 | 1023.8 |
| 20260830032003 | 68 | 20 | 0.0 | 3.0 | 0.00 | 0.00 | 0.00 | 87 | 1023.7 |
| 20260830031503 | 69 | 9 | 1.0 | 3.0 | 0.00 | 0.00 | 0.00 | 87 | 1023.7 |
| 20260830031003 | 69 | 9 | 1.0 | 4.0 | 0.00 | 0.00 | 0.00 | 87 | 1023.7 |
| 20260830030503 | 69 | 5 | 1.0 | 4.0 | 0.00 | 0.00 | 0.00 | 86 | 1023.6 |
| 20260830030003 | 69 | 8 | 1.0 | 3.0 | 0.00 | 0.00 | 0.00 | 86 | 1023.6 |
| 20260830025504 | 69 | 5 | 1.0 | 3.0 | 0.00 | 0.00 | 0.00 | 86 | 1023.6 |
| 20260830025003 | 69 | 2 | 1.0 | 3.0 | 0.00 | 0.00 | 0.00 | 86 | 1023.6 |
| 20260830024503 | 69 | 10 | 1.0 | 3.0 | 0.00 | 0.00 | 0.00 | 85 | 1023.7 |
| 20260830023503 | 70 | 4 | 2.0 | 4.0 | 0.00 | 0.00 | 0.00 | 85 | 1023.7 |
| 20260830023002 | 70 | 3 | 2.0 | 5.0 | 0.00 | 0.00 | 0.00 | 85 | 1023.7 |
| 20260830022003 | 70 | 1 | 2.0 | 4.0 | 0.00 | 0.00 | 0.00 | 84 | 1023.7 |
| 20260830021503 | 70 | 2 | 1.0 | 3.0 | 0.00 | 0.00 | 0.00 | 84 | 1023.7 |
| 20260830021003 | 70 | 6 | 1.0 | 3.0 | 0.00 | 0.00 | 0.00 | 83 | 1023.8 |
| 20260830020503 | 70 | 3 | 1.0 | 4.0 | 0.00 | 0.00 | 0.00 | 83 | 1023.8 |
| 20260830015503 | 71 | 10 | 1.0 | 4.0 | 0.00 | 0.00 | 0.00 | 82 | 1023.6 |
| 20260830014503 | 71 | 5 | 1.0 | 4.0 | 0.00 | 0.00 | 0.00 | 82 | 1023.4 |
| 20260830014003 | 71 | 5 | 1.0 | 5.0 | 0.00 | 0.00 | 0.00 | 82 | 1023.5 |
| 20260830013503 | 71 | 6 | 1.0 | 5.0 | 0.00 | 0.00 | 0.00 | 82 | 1023.4 |
| 20260830013003 | 71 | 11 | 1.0 | 4.0 | 0.00 | 0.00 | 0.00 | 82 | 1023.4 |
| 20260830012503 | 71 | 24 | 1.0 | 4.0 | 0.00 | 0.00 | 0.00 | 82 | 1023.3 |
| 20260830011503 | 72 | 41 | 1.0 | 2.0 | 0.00 | 0.00 | 0.00 | 82 | 1023.3 |